sensor_id;sensor_type;location;lat;lon;timestamp;temperature;humidity
44277;DHT22;29973;43.742;1.236;2023-11-18T00:00:49;6.30;99.90
44277;DHT22;29973;43.742;1.236;2023-11-18T00:03:16;6.50;99.90
44277;DHT22;29973;43.742;1.236;2023-11-18T00:05:42;6.60;99.90
44277;DHT22;29973;43.742;1.236;2023-11-18T00:08:07;6.70;99.90
44277;DHT22;29973;43.742;1.236;2023-11-18T00:10:33;6.60;99.90
44277;DHT22;29973;43.742;1.236;2023-11-18T00:12:59;6.50;99.90
44277;DHT22;29973;43.742;1.236;2023-11-18T00:15:24;6.50;99.90
44277;DHT22;29973;43.742;1.236;2023-11-18T00:17:50;6.40;99.90
44277;DHT22;29973;43.742;1.236;2023-11-18T00:20:17;6.40;99.90
44277;DHT22;29973;43.742;1.236;2023-11-18T00:22:44;6.60;99.90
44277;DHT22;29973;43.742;1.236;2023-11-18T00:25:10;6.60;99.90
44277;DHT22;29973;43.742;1.236;2023-11-18T00:27:39;6.70;99.90
44277;DHT22;29973;43.742;1.236;2023-11-18T00:30:06;6.70;99.90
44277;DHT22;29973;43.742;1.236;2023-11-18T00:32:36;6.80;99.90
44277;DHT22;29973;43.742;1.236;2023-11-18T00:35:02;6.80;99.90
44277;DHT22;29973;43.742;1.236;2023-11-18T00:37:31;6.90;99.90
44277;DHT22;29973;43.742;1.236;2023-11-18T00:39:57;7.00;99.90
44277;DHT22;29973;43.742;1.236;2023-11-18T00:42:23;7.00;99.90
44277;DHT22;29973;43.742;1.236;2023-11-18T00:44:49;7.00;99.90
44277;DHT22;29973;43.742;1.236;2023-11-18T00:47:15;7.00;99.90
44277;DHT22;29973;43.742;1.236;2023-11-18T00:49:40;7.10;99.90
44277;DHT22;29973;43.742;1.236;2023-11-18T00:52:06;7.20;99.90
44277;DHT22;29973;43.742;1.236;2023-11-18T00:54:32;7.20;99.90
44277;DHT22;29973;43.742;1.236;2023-11-18T00:56:58;7.40;99.90
44277;DHT22;29973;43.742;1.236;2023-11-18T00:59:23;7.40;99.90
44277;DHT22;29973;43.742;1.236;2023-11-18T01:01:49;7.40;99.90
44277;DHT22;29973;43.742;1.236;2023-11-18T01:04:15;7.40;99.90
44277;DHT22;29973;43.742;1.236;2023-11-18T01:06:42;7.20;99.90
44277;DHT22;29973;43.742;1.236;2023-11-18T01:09:08;7.10;99.90
44277;DHT22;29973;43.742;1.236;2023-11-18T01:11:35;7.00;99.90
44277;DHT22;29973;43.742;1.236;2023-11-18T01:14:01;6.70;99.90
44277;DHT22;29973;43.742;1.236;2023-11-18T01:16:27;6.60;99.90
44277;DHT22;29973;43.742;1.236;2023-11-18T01:18:54;6.50;99.90
44277;DHT22;29973;43.742;1.236;2023-11-18T01:21:20;6.40;99.90
44277;DHT22;29973;43.742;1.236;2023-11-18T01:23:46;6.20;99.90
44277;DHT22;29973;43.742;1.236;2023-11-18T01:26:11;6.20;99.90
44277;DHT22;29973;43.742;1.236;2023-11-18T01:28:40;6.10;99.90
44277;DHT22;29973;43.742;1.236;2023-11-18T01:31:11;6.10;99.90
44277;DHT22;29973;43.742;1.236;2023-11-18T01:33:40;6.00;99.90
44277;DHT22;29973;43.742;1.236;2023-11-18T01:36:09;6.00;99.90
44277;DHT22;29973;43.742;1.236;2023-11-18T01:38:36;5.90;99.90
44277;DHT22;29973;43.742;1.236;2023-11-18T01:41:06;5.90;99.90
44277;DHT22;29973;43.742;1.236;2023-11-18T01:43:32;5.90;99.90
44277;DHT22;29973;43.742;1.236;2023-11-18T01:45:59;5.90;99.90
44277;DHT22;29973;43.742;1.236;2023-11-18T01:48:31;6.00;99.90
44277;DHT22;29973;43.742;1.236;2023-11-18T01:50:59;5.90;99.90
44277;DHT22;29973;43.742;1.236;2023-11-18T01:53:25;6.00;99.90
44277;DHT22;29973;43.742;1.236;2023-11-18T01:55:52;6.00;99.90
44277;DHT22;29973;43.742;1.236;2023-11-18T01:58:18;5.90;99.90
44277;DHT22;29973;43.742;1.236;2023-11-18T02:00:45;5.80;99.90
44277;DHT22;29973;43.742;1.236;2023-11-18T02:03:15;5.90;99.90
44277;DHT22;29973;43.742;1.236;2023-11-18T02:05:40;6.00;99.90
44277;DHT22;29973;43.742;1.236;2023-11-18T02:08:08;6.00;99.90
44277;DHT22;29973;43.742;1.236;2023-11-18T02:10:35;6.10;99.90
44277;DHT22;29973;43.742;1.236;2023-11-18T02:13:13;6.10;99.90
44277;DHT22;29973;43.742;1.236;2023-11-18T02:15:45;6.10;99.90
44277;DHT22;29973;43.742;1.236;2023-11-18T02:18:11;5.90;99.90
44277;DHT22;29973;43.742;1.236;2023-11-18T02:20:39;5.90;99.90
44277;DHT22;29973;43.742;1.236;2023-11-18T02:23:05;5.90;99.90
44277;DHT22;29973;43.742;1.236;2023-11-18T02:25:33;5.80;99.90
44277;DHT22;29973;43.742;1.236;2023-11-18T02:28:00;5.80;99.90
44277;DHT22;29973;43.742;1.236;2023-11-18T02:30:26;5.80;99.90
44277;DHT22;29973;43.742;1.236;2023-11-18T02:33:11;5.80;99.90
44277;DHT22;29973;43.742;1.236;2023-11-18T02:36:08;6.00;99.90
44277;DHT22;29973;43.742;1.236;2023-11-18T02:38:39;6.00;99.90
44277;DHT22;29973;43.742;1.236;2023-11-18T02:41:10;6.10;99.90
44277;DHT22;29973;43.742;1.236;2023-11-18T02:43:39;6.10;99.90
44277;DHT22;29973;43.742;1.236;2023-11-18T02:46:08;6.10;99.90
44277;DHT22;29973;43.742;1.236;2023-11-18T02:48:34;6.10;99.90
44277;DHT22;29973;43.742;1.236;2023-11-18T02:51:01;5.90;99.90
44277;DHT22;29973;43.742;1.236;2023-11-18T02:53:27;5.80;99.90
44277;DHT22;29973;43.742;1.236;2023-11-18T02:55:53;5.80;99.90
44277;DHT22;29973;43.742;1.236;2023-11-18T02:58:19;5.80;99.90
44277;DHT22;29973;43.742;1.236;2023-11-18T03:00:46;5.70;99.90
44277;DHT22;29973;43.742;1.236;2023-11-18T03:03:11;5.90;99.90
44277;DHT22;29973;43.742;1.236;2023-11-18T03:05:37;6.00;99.90
44277;DHT22;29973;43.742;1.236;2023-11-18T03:08:04;5.90;99.90
44277;DHT22;29973;43.742;1.236;2023-11-18T03:10:34;5.90;99.90
44277;DHT22;29973;43.742;1.236;2023-11-18T03:13:00;5.80;99.90
44277;DHT22;29973;43.742;1.236;2023-11-18T03:15:27;5.80;99.90
44277;DHT22;29973;43.742;1.236;2023-11-18T03:17:54;5.80;99.90
44277;DHT22;29973;43.742;1.236;2023-11-18T03:20:21;5.70;99.90
44277;DHT22;29973;43.742;1.236;2023-11-18T03:22:49;5.60;99.90
44277;DHT22;29973;43.742;1.236;2023-11-18T03:25:16;5.50;99.90
44277;DHT22;29973;43.742;1.236;2023-11-18T03:27:42;5.50;99.90
44277;DHT22;29973;43.742;1.236;2023-11-18T03:30:09;5.40;99.90
44277;DHT22;29973;43.742;1.236;2023-11-18T03:32:38;5.40;99.90
44277;DHT22;29973;43.742;1.236;2023-11-18T03:35:06;5.50;99.90
44277;DHT22;29973;43.742;1.236;2023-11-18T03:37:35;5.30;99.90
44277;DHT22;29973;43.742;1.236;2023-11-18T03:40:05;5.30;99.90
44277;DHT22;29973;43.742;1.236;2023-11-18T03:42:31;5.30;99.90
44277;DHT22;29973;43.742;1.236;2023-11-18T03:44:57;5.30;99.90
44277;DHT22;29973;43.742;1.236;2023-11-18T03:47:22;5.50;99.90
44277;DHT22;29973;43.742;1.236;2023-11-18T03:49:51;5.50;99.90
44277;DHT22;29973;43.742;1.236;2023-11-18T03:52:17;5.30;99.90
44277;DHT22;29973;43.742;1.236;2023-11-18T03:54:42;5.30;99.90
44277;DHT22;29973;43.742;1.236;2023-11-18T03:57:08;5.30;99.90
44277;DHT22;29973;43.742;1.236;2023-11-18T03:59:34;5.40;99.90
44277;DHT22;29973;43.742;1.236;2023-11-18T04:02:00;5.30;99.90
44277;DHT22;29973;43.742;1.236;2023-11-18T04:04:25;5.30;99.90
44277;DHT22;29973;43.742;1.236;2023-11-18T04:06:51;5.10;99.90
44277;DHT22;29973;43.742;1.236;2023-11-18T04:09:17;5.10;99.90
44277;DHT22;29973;43.742;1.236;2023-11-18T04:11:43;4.90;99.90
44277;DHT22;29973;43.742;1.236;2023-11-18T04:14:11;5.00;99.90
44277;DHT22;29973;43.742;1.236;2023-11-18T04:16:37;5.00;99.90
44277;DHT22;29973;43.742;1.236;2023-11-18T04:19:03;4.90;99.90
44277;DHT22;29973;43.742;1.236;2023-11-18T04:21:29;4.90;99.90
44277;DHT22;29973;43.742;1.236;2023-11-18T04:23:55;4.90;99.90
44277;DHT22;29973;43.742;1.236;2023-11-18T04:26:21;4.80;99.90
44277;DHT22;29973;43.742;1.236;2023-11-18T04:28:46;4.90;99.90
44277;DHT22;29973;43.742;1.236;2023-11-18T04:31:12;5.00;99.90
44277;DHT22;29973;43.742;1.236;2023-11-18T04:33:38;5.10;99.90
44277;DHT22;29973;43.742;1.236;2023-11-18T04:36:07;5.10;99.90
44277;DHT22;29973;43.742;1.236;2023-11-18T04:38:35;5.10;99.90
44277;DHT22;29973;43.742;1.236;2023-11-18T04:41:01;5.10;99.90
44277;DHT22;29973;43.742;1.236;2023-11-18T04:43:29;5.10;99.90
44277;DHT22;29973;43.742;1.236;2023-11-18T04:45:56;5.10;99.90
44277;DHT22;29973;43.742;1.236;2023-11-18T04:48:22;5.10;99.90
44277;DHT22;29973;43.742;1.236;2023-11-18T04:50:47;5.30;99.90
44277;DHT22;29973;43.742;1.236;2023-11-18T04:53:13;5.40;99.90
44277;DHT22;29973;43.742;1.236;2023-11-18T04:55:39;5.50;99.90
44277;DHT22;29973;43.742;1.236;2023-11-18T04:58:05;5.60;99.90
44277;DHT22;29973;43.742;1.236;2023-11-18T05:00:36;5.70;99.90
44277;DHT22;29973;43.742;1.236;2023-11-18T05:03:04;5.60;99.90
44277;DHT22;29973;43.742;1.236;2023-11-18T05:05:30;5.60;99.90
44277;DHT22;29973;43.742;1.236;2023-11-18T05:07:56;5.60;99.90
44277;DHT22;29973;43.742;1.236;2023-11-18T05:10:22;5.50;99.90
44277;DHT22;29973;43.742;1.236;2023-11-18T05:12:47;5.50;99.90
44277;DHT22;29973;43.742;1.236;2023-11-18T05:15:21;5.40;99.90
44277;DHT22;29973;43.742;1.236;2023-11-18T05:17:53;5.30;99.90
44277;DHT22;29973;43.742;1.236;2023-11-18T05:20:19;5.20;99.90
44277;DHT22;29973;43.742;1.236;2023-11-18T05:22:44;5.20;99.90
44277;DHT22;29973;43.742;1.236;2023-11-18T05:25:10;5.30;99.90
44277;DHT22;29973;43.742;1.236;2023-11-18T05:27:36;5.30;99.90
44277;DHT22;29973;43.742;1.236;2023-11-18T05:30:02;5.20;99.90
44277;DHT22;29973;43.742;1.236;2023-11-18T05:32:29;5.20;99.90
44277;DHT22;29973;43.742;1.236;2023-11-18T05:34:55;5.10;99.90
44277;DHT22;29973;43.742;1.236;2023-11-18T05:37:24;5.00;99.90
44277;DHT22;29973;43.742;1.236;2023-11-18T05:39:50;5.00;99.90
44277;DHT22;29973;43.742;1.236;2023-11-18T05:42:25;5.00;99.90
44277;DHT22;29973;43.742;1.236;2023-11-18T05:44:51;5.00;99.90
44277;DHT22;29973;43.742;1.236;2023-11-18T05:47:27;5.00;99.90
44277;DHT22;29973;43.742;1.236;2023-11-18T05:49:53;5.00;99.90
44277;DHT22;29973;43.742;1.236;2023-11-18T05:52:19;5.00;99.90
44277;DHT22;29973;43.742;1.236;2023-11-18T05:54:46;4.90;99.90
44277;DHT22;29973;43.742;1.236;2023-11-18T05:57:18;4.90;99.90
44277;DHT22;29973;43.742;1.236;2023-11-18T05:59:45;4.90;99.90
44277;DHT22;29973;43.742;1.236;2023-11-18T06:02:13;4.90;99.90
44277;DHT22;29973;43.742;1.236;2023-11-18T06:04:44;4.80;99.90
44277;DHT22;29973;43.742;1.236;2023-11-18T06:07:09;4.70;99.90
44277;DHT22;29973;43.742;1.236;2023-11-18T06:09:35;4.60;99.90
44277;DHT22;29973;43.742;1.236;2023-11-18T06:12:01;4.70;99.90
44277;DHT22;29973;43.742;1.236;2023-11-18T06:14:27;4.80;99.90
44277;DHT22;29973;43.742;1.236;2023-11-18T06:16:53;4.70;99.90
44277;DHT22;29973;43.742;1.236;2023-11-18T06:19:20;4.70;99.90
44277;DHT22;29973;43.742;1.236;2023-11-18T06:21:46;4.80;99.90
44277;DHT22;29973;43.742;1.236;2023-11-18T06:24:12;4.70;99.90
44277;DHT22;29973;43.742;1.236;2023-11-18T06:26:40;4.80;99.90
44277;DHT22;29973;43.742;1.236;2023-11-18T06:29:07;4.60;99.90
44277;DHT22;29973;43.742;1.236;2023-11-18T06:31:32;4.60;99.90
44277;DHT22;29973;43.742;1.236;2023-11-18T06:33:58;4.50;99.90
44277;DHT22;29973;43.742;1.236;2023-11-18T06:36:24;4.50;99.90
44277;DHT22;29973;43.742;1.236;2023-11-18T06:38:52;4.40;99.90
44277;DHT22;29973;43.742;1.236;2023-11-18T06:41:20;4.30;99.90
44277;DHT22;29973;43.742;1.236;2023-11-18T06:43:49;4.40;99.90
44277;DHT22;29973;43.742;1.236;2023-11-18T06:46:20;4.30;99.90
44277;DHT22;29973;43.742;1.236;2023-11-18T06:48:48;4.40;99.90
44277;DHT22;29973;43.742;1.236;2023-11-18T06:51:15;4.30;99.90
44277;DHT22;29973;43.742;1.236;2023-11-18T06:53:42;4.40;99.90
44277;DHT22;29973;43.742;1.236;2023-11-18T06:56:08;4.40;99.90
44277;DHT22;29973;43.742;1.236;2023-11-18T06:58:38;4.40;99.90
44277;DHT22;29973;43.742;1.236;2023-11-18T07:01:04;4.40;99.90
44277;DHT22;29973;43.742;1.236;2023-11-18T07:03:31;4.40;99.90
44277;DHT22;29973;43.742;1.236;2023-11-18T07:05:57;4.40;99.90
44277;DHT22;29973;43.742;1.236;2023-11-18T07:08:23;4.50;99.90
44277;DHT22;29973;43.742;1.236;2023-11-18T07:10:49;4.50;99.90
44277;DHT22;29973;43.742;1.236;2023-11-18T07:13:15;4.60;99.90
44277;DHT22;29973;43.742;1.236;2023-11-18T07:15:42;4.70;99.90
44277;DHT22;29973;43.742;1.236;2023-11-18T07:18:08;4.70;99.90
44277;DHT22;29973;43.742;1.236;2023-11-18T07:20:34;4.80;99.90
44277;DHT22;29973;43.742;1.236;2023-11-18T07:23:00;4.80;99.90
44277;DHT22;29973;43.742;1.236;2023-11-18T07:25:26;4.90;99.90
44277;DHT22;29973;43.742;1.236;2023-11-18T07:27:52;5.00;99.90
44277;DHT22;29973;43.742;1.236;2023-11-18T07:30:18;5.00;99.90
44277;DHT22;29973;43.742;1.236;2023-11-18T07:32:44;5.10;99.90
44277;DHT22;29973;43.742;1.236;2023-11-18T07:35:09;5.20;99.90
44277;DHT22;29973;43.742;1.236;2023-11-18T07:37:37;5.30;99.90
44277;DHT22;29973;43.742;1.236;2023-11-18T07:40:04;5.50;99.90
44277;DHT22;29973;43.742;1.236;2023-11-18T07:42:33;5.70;99.90
44277;DHT22;29973;43.742;1.236;2023-11-18T07:45:04;5.90;99.90
44277;DHT22;29973;43.742;1.236;2023-11-18T07:47:32;6.10;99.90
44277;DHT22;29973;43.742;1.236;2023-11-18T07:49:59;6.30;99.90
44277;DHT22;29973;43.742;1.236;2023-11-18T07:52:26;6.40;99.90
44277;DHT22;29973;43.742;1.236;2023-11-18T07:54:53;6.60;99.90
44277;DHT22;29973;43.742;1.236;2023-11-18T07:57:19;6.80;99.90
44277;DHT22;29973;43.742;1.236;2023-11-18T07:59:45;7.00;99.90
44277;DHT22;29973;43.742;1.236;2023-11-18T08:02:11;7.10;99.90
44277;DHT22;29973;43.742;1.236;2023-11-18T08:04:36;7.20;99.90
44277;DHT22;29973;43.742;1.236;2023-11-18T08:07:02;7.40;99.90
44277;DHT22;29973;43.742;1.236;2023-11-18T08:09:30;7.60;99.90
44277;DHT22;29973;43.742;1.236;2023-11-18T08:11:57;7.70;99.90
44277;DHT22;29973;43.742;1.236;2023-11-18T08:14:24;7.80;99.90
44277;DHT22;29973;43.742;1.236;2023-11-18T08:16:49;7.90;99.90
44277;DHT22;29973;43.742;1.236;2023-11-18T08:19:16;8.00;99.90
44277;DHT22;29973;43.742;1.236;2023-11-18T08:21:43;8.10;99.90
44277;DHT22;29973;43.742;1.236;2023-11-18T08:24:08;8.20;99.90
44277;DHT22;29973;43.742;1.236;2023-11-18T08:26:35;8.40;99.90
44277;DHT22;29973;43.742;1.236;2023-11-18T08:29:01;8.50;99.90
44277;DHT22;29973;43.742;1.236;2023-11-18T08:31:27;8.60;99.90
44277;DHT22;29973;43.742;1.236;2023-11-18T08:33:52;8.70;99.90
44277;DHT22;29973;43.742;1.236;2023-11-18T08:36:20;8.70;99.90
44277;DHT22;29973;43.742;1.236;2023-11-18T08:38:48;8.90;99.90
44277;DHT22;29973;43.742;1.236;2023-11-18T08:41:14;9.00;99.90
44277;DHT22;29973;43.742;1.236;2023-11-18T08:43:40;9.00;99.90
44277;DHT22;29973;43.742;1.236;2023-11-18T08:46:06;9.20;99.90
44277;DHT22;29973;43.742;1.236;2023-11-18T08:48:33;9.30;99.90
44277;DHT22;29973;43.742;1.236;2023-11-18T08:51:03;9.40;99.90
44277;DHT22;29973;43.742;1.236;2023-11-18T08:53:33;9.70;99.90
44277;DHT22;29973;43.742;1.236;2023-11-18T08:56:08;9.80;99.90
44277;DHT22;29973;43.742;1.236;2023-11-18T08:58:40;9.80;99.90
44277;DHT22;29973;43.742;1.236;2023-11-18T09:01:06;9.90;99.90
44277;DHT22;29973;43.742;1.236;2023-11-18T09:03:39;11.00;99.90
44277;DHT22;29973;43.742;1.236;2023-11-18T09:06:17;12.70;99.90
44277;DHT22;29973;43.742;1.236;2023-11-18T09:08:44;14.40;99.90
44277;DHT22;29973;43.742;1.236;2023-11-18T09:11:12;15.60;99.90
44277;DHT22;29973;43.742;1.236;2023-11-18T09:13:44;15.30;99.90
44277;DHT22;29973;43.742;1.236;2023-11-18T09:16:26;15.70;99.90
44277;DHT22;29973;43.742;1.236;2023-11-18T09:18:55;15.90;99.90
44277;DHT22;29973;43.742;1.236;2023-11-18T09:21:21;15.80;99.90
44277;DHT22;29973;43.742;1.236;2023-11-18T09:23:54;15.50;99.90
44277;DHT22;29973;43.742;1.236;2023-11-18T09:26:22;16.40;99.90
44277;DHT22;29973;43.742;1.236;2023-11-18T09:28:48;17.80;99.90
44277;DHT22;29973;43.742;1.236;2023-11-18T09:31:15;18.40;99.90
44277;DHT22;29973;43.742;1.236;2023-11-18T09:33:42;18.80;99.90
44277;DHT22;29973;43.742;1.236;2023-11-18T09:36:17;19.10;99.90
44277;DHT22;29973;43.742;1.236;2023-11-18T09:38:44;19.40;99.90
44277;DHT22;29973;43.742;1.236;2023-11-18T09:41:12;20.00;99.90
44277;DHT22;29973;43.742;1.236;2023-11-18T09:43:46;19.60;99.90
44277;DHT22;29973;43.742;1.236;2023-11-18T09:46:27;19.70;99.90
44277;DHT22;29973;43.742;1.236;2023-11-18T09:49:22;20.30;99.90
44277;DHT22;29973;43.742;1.236;2023-11-18T09:51:57;20.70;99.90
44277;DHT22;29973;43.742;1.236;2023-11-18T09:54:30;22.00;99.90
44277;DHT22;29973;43.742;1.236;2023-11-18T09:57:08;21.50;99.90
44277;DHT22;29973;43.742;1.236;2023-11-18T10:02:48;19.20;99.90
44277;DHT22;29973;43.742;1.236;2023-11-18T10:05:16;19.50;99.90
44277;DHT22;29973;43.742;1.236;2023-11-18T10:07:46;19.90;99.90
44277;DHT22;29973;43.742;1.236;2023-11-18T10:10:13;19.80;99.90
44277;DHT22;29973;43.742;1.236;2023-11-18T10:12:45;20.60;99.90
44277;DHT22;29973;43.742;1.236;2023-11-18T10:15:13;21.60;99.90
44277;DHT22;29973;43.742;1.236;2023-11-18T10:17:42;22.70;99.90
44277;DHT22;29973;43.742;1.236;2023-11-18T10:20:22;22.20;99.90
44277;DHT22;29973;43.742;1.236;2023-11-18T10:23:06;22.80;99.90
44277;DHT22;29973;43.742;1.236;2023-11-18T10:25:32;23.20;99.90
44277;DHT22;29973;43.742;1.236;2023-11-18T10:28:01;22.70;99.90
44277;DHT22;29973;43.742;1.236;2023-11-18T10:30:28;23.90;99.90
44277;DHT22;29973;43.742;1.236;2023-11-18T10:33:00;24.50;99.90
44277;DHT22;29973;43.742;1.236;2023-11-18T10:35:35;23.80;99.90
44277;DHT22;29973;43.742;1.236;2023-11-18T10:38:04;23.30;99.90
44277;DHT22;29973;43.742;1.236;2023-11-18T10:40:32;21.30;99.90
44277;DHT22;29973;43.742;1.236;2023-11-18T10:43:05;21.90;99.90
44277;DHT22;29973;43.742;1.236;2023-11-18T10:45:35;23.00;99.90
44277;DHT22;29973;43.742;1.236;2023-11-18T10:48:07;22.90;99.90
44277;DHT22;29973;43.742;1.236;2023-11-18T10:50:34;24.00;99.90
44277;DHT22;29973;43.742;1.236;2023-11-18T10:53:03;23.20;99.90
44277;DHT22;29973;43.742;1.236;2023-11-18T10:55:40;23.30;99.90
44277;DHT22;29973;43.742;1.236;2023-11-18T10:58:06;24.30;99.90
44277;DHT22;29973;43.742;1.236;2023-11-18T11:00:49;23.80;99.90
44277;DHT22;29973;43.742;1.236;2023-11-18T11:03:16;24.10;99.90
44277;DHT22;29973;43.742;1.236;2023-11-18T11:05:44;22.50;99.90
44277;DHT22;29973;43.742;1.236;2023-11-18T11:08:14;22.10;99.90
44277;DHT22;29973;43.742;1.236;2023-11-18T11:10:42;22.90;99.90
44277;DHT22;29973;43.742;1.236;2023-11-18T11:13:08;23.20;99.90
44277;DHT22;29973;43.742;1.236;2023-11-18T11:15:40;25.20;99.90
44277;DHT22;29973;43.742;1.236;2023-11-18T11:18:10;24.60;99.90
44277;DHT22;29973;43.742;1.236;2023-11-18T11:20:46;24.20;99.90
44277;DHT22;29973;43.742;1.236;2023-11-18T11:23:30;23.90;99.90
44277;DHT22;29973;43.742;1.236;2023-11-18T11:31:41;22.90;99.90
44277;DHT22;29973;43.742;1.236;2023-11-18T11:34:17;24.00;99.90
44277;DHT22;29973;43.742;1.236;2023-11-18T11:36:51;24.30;99.90
44277;DHT22;29973;43.742;1.236;2023-11-18T11:39:19;23.50;99.90
44277;DHT22;29973;43.742;1.236;2023-11-18T11:41:52;24.40;99.90
44277;DHT22;29973;43.742;1.236;2023-11-18T11:44:20;24.30;99.90
44277;DHT22;29973;43.742;1.236;2023-11-18T11:46:50;24.10;99.90
44277;DHT22;29973;43.742;1.236;2023-11-18T11:49:20;23.40;99.90
44277;DHT22;29973;43.742;1.236;2023-11-18T11:51:52;22.70;99.90
44277;DHT22;29973;43.742;1.236;2023-11-18T11:54:26;22.60;99.90
44277;DHT22;29973;43.742;1.236;2023-11-18T11:56:58;22.00;99.90
44277;DHT22;29973;43.742;1.236;2023-11-18T11:59:54;22.60;99.90
44277;DHT22;29973;43.742;1.236;2023-11-18T12:02:22;22.40;99.90
44277;DHT22;29973;43.742;1.236;2023-11-18T12:04:53;22.80;99.90
44277;DHT22;29973;43.742;1.236;2023-11-18T12:07:22;22.80;99.90
44277;DHT22;29973;43.742;1.236;2023-11-18T12:09:59;23.10;99.90
44277;DHT22;29973;43.742;1.236;2023-11-18T12:12:27;23.50;99.90
44277;DHT22;29973;43.742;1.236;2023-11-18T12:14:59;23.40;99.90
44277;DHT22;29973;43.742;1.236;2023-11-18T12:23:06;23.40;99.90
44277;DHT22;29973;43.742;1.236;2023-11-18T12:25:41;23.20;99.90
44277;DHT22;29973;43.742;1.236;2023-11-18T12:28:08;23.10;99.90
44277;DHT22;29973;43.742;1.236;2023-11-18T12:33:04;23.90;99.90
44277;DHT22;29973;43.742;1.236;2023-11-18T12:35:44;24.90;99.90
44277;DHT22;29973;43.742;1.236;2023-11-18T12:38:30;23.60;99.90
44277;DHT22;29973;43.742;1.236;2023-11-18T12:41:08;22.90;99.90
44277;DHT22;29973;43.742;1.236;2023-11-18T12:43:47;23.00;99.90
44277;DHT22;29973;43.742;1.236;2023-11-18T12:49:03;24.00;99.90
44277;DHT22;29973;43.742;1.236;2023-11-18T12:51:31;23.90;99.90
44277;DHT22;29973;43.742;1.236;2023-11-18T12:54:01;23.30;99.90
44277;DHT22;29973;43.742;1.236;2023-11-18T12:56:28;23.00;99.90
44277;DHT22;29973;43.742;1.236;2023-11-18T12:58:56;23.50;99.90
44277;DHT22;29973;43.742;1.236;2023-11-18T13:01:22;22.90;99.90
44277;DHT22;29973;43.742;1.236;2023-11-18T13:03:48;22.20;99.90
44277;DHT22;29973;43.742;1.236;2023-11-18T13:06:14;21.30;99.90
44277;DHT22;29973;43.742;1.236;2023-11-18T13:08:43;21.70;99.90
44277;DHT22;29973;43.742;1.236;2023-11-18T13:11:09;21.90;99.90
44277;DHT22;29973;43.742;1.236;2023-11-18T13:13:42;22.60;99.90
44277;DHT22;29973;43.742;1.236;2023-11-18T13:16:08;21.90;99.90
44277;DHT22;29973;43.742;1.236;2023-11-18T13:18:47;22.20;99.90
44277;DHT22;29973;43.742;1.236;2023-11-18T13:21:15;23.00;99.90
44277;DHT22;29973;43.742;1.236;2023-11-18T13:23:45;23.50;99.90
44277;DHT22;29973;43.742;1.236;2023-11-18T13:26:12;23.20;99.90
44277;DHT22;29973;43.742;1.236;2023-11-18T13:28:38;23.10;99.90
44277;DHT22;29973;43.742;1.236;2023-11-18T13:31:09;23.20;99.90
44277;DHT22;29973;43.742;1.236;2023-11-18T13:33:42;23.70;99.90
44277;DHT22;29973;43.742;1.236;2023-11-18T13:36:08;24.50;99.90
44277;DHT22;29973;43.742;1.236;2023-11-18T13:38:38;23.60;99.90
44277;DHT22;29973;43.742;1.236;2023-11-18T13:41:04;22.90;99.90
44277;DHT22;29973;43.742;1.236;2023-11-18T13:43:45;22.90;99.90
44277;DHT22;29973;43.742;1.236;2023-11-18T13:46:18;21.80;99.90
44277;DHT22;29973;43.742;1.236;2023-11-18T13:48:49;22.60;99.90
44277;DHT22;29973;43.742;1.236;2023-11-18T13:51:16;24.00;99.90
44277;DHT22;29973;43.742;1.236;2023-11-18T13:53:43;24.90;99.90
44277;DHT22;29973;43.742;1.236;2023-11-18T13:56:10;24.20;99.90
44277;DHT22;29973;43.742;1.236;2023-11-18T13:58:37;23.10;99.90
44277;DHT22;29973;43.742;1.236;2023-11-18T14:01:09;23.00;99.90
44277;DHT22;29973;43.742;1.236;2023-11-18T14:03:36;22.10;99.90
44277;DHT22;29973;43.742;1.236;2023-11-18T14:06:08;21.90;99.90
44277;DHT22;29973;43.742;1.236;2023-11-18T14:08:38;21.40;99.90
44277;DHT22;29973;43.742;1.236;2023-11-18T14:11:05;21.20;99.90
44277;DHT22;29973;43.742;1.236;2023-11-18T14:13:32;21.20;99.90
44277;DHT22;29973;43.742;1.236;2023-11-18T14:16:00;21.10;99.90
44277;DHT22;29973;43.742;1.236;2023-11-18T14:18:27;20.90;99.90
44277;DHT22;29973;43.742;1.236;2023-11-18T14:20:53;21.20;99.90
44277;DHT22;29973;43.742;1.236;2023-11-18T14:23:20;20.90;99.90
44277;DHT22;29973;43.742;1.236;2023-11-18T14:25:47;20.60;99.90
44277;DHT22;29973;43.742;1.236;2023-11-18T14:28:13;20.50;99.90
44277;DHT22;29973;43.742;1.236;2023-11-18T14:30:39;20.20;99.90
44277;DHT22;29973;43.742;1.236;2023-11-18T14:33:06;22.60;99.90
44277;DHT22;29973;43.742;1.236;2023-11-18T14:35:32;23.50;99.90
44277;DHT22;29973;43.742;1.236;2023-11-18T14:37:59;23.30;99.90
44277;DHT22;29973;43.742;1.236;2023-11-18T14:40:26;22.10;99.90
44277;DHT22;29973;43.742;1.236;2023-11-18T14:42:53;23.80;99.90
44277;DHT22;29973;43.742;1.236;2023-11-18T14:45:19;24.60;99.90
44277;DHT22;29973;43.742;1.236;2023-11-18T14:47:45;23.50;99.90
44277;DHT22;29973;43.742;1.236;2023-11-18T14:50:19;22.90;99.90
44277;DHT22;29973;43.742;1.236;2023-11-18T14:52:49;22.30;99.90
44277;DHT22;29973;43.742;1.236;2023-11-18T14:55:17;22.10;99.90
44277;DHT22;29973;43.742;1.236;2023-11-18T14:57:46;20.90;99.90
44277;DHT22;29973;43.742;1.236;2023-11-18T15:00:13;20.10;99.90
44277;DHT22;29973;43.742;1.236;2023-11-18T15:02:51;20.60;99.90
44277;DHT22;29973;43.742;1.236;2023-11-18T15:05:18;22.10;99.90
44277;DHT22;29973;43.742;1.236;2023-11-18T15:07:45;22.20;99.90
44277;DHT22;29973;43.742;1.236;2023-11-18T15:10:11;21.40;99.90
44277;DHT22;29973;43.742;1.236;2023-11-18T15:12:38;22.70;99.90
44277;DHT22;29973;43.742;1.236;2023-11-18T15:15:06;23.70;99.90
44277;DHT22;29973;43.742;1.236;2023-11-18T15:17:33;25.10;99.90
44277;DHT22;29973;43.742;1.236;2023-11-18T15:20:00;25.00;99.90
44277;DHT22;29973;43.742;1.236;2023-11-18T15:22:25;23.90;99.90
44277;DHT22;29973;43.742;1.236;2023-11-18T15:24:52;21.70;99.90
44277;DHT22;29973;43.742;1.236;2023-11-18T15:27:18;19.70;99.90
44277;DHT22;29973;43.742;1.236;2023-11-18T15:29:45;18.40;99.90
44277;DHT22;29973;43.742;1.236;2023-11-18T15:32:16;17.80;99.90
44277;DHT22;29973;43.742;1.236;2023-11-18T15:34:42;17.20;99.90
44277;DHT22;29973;43.742;1.236;2023-11-18T15:37:08;16.70;99.90
44277;DHT22;29973;43.742;1.236;2023-11-18T15:39:35;16.20;99.90
44277;DHT22;29973;43.742;1.236;2023-11-18T15:42:01;15.90;99.90
44277;DHT22;29973;43.742;1.236;2023-11-18T15:44:27;15.60;99.90
44277;DHT22;29973;43.742;1.236;2023-11-18T15:46:54;15.30;99.90
44277;DHT22;29973;43.742;1.236;2023-11-18T15:49:19;15.10;99.90
44277;DHT22;29973;43.742;1.236;2023-11-18T15:51:45;14.80;99.90
44277;DHT22;29973;43.742;1.236;2023-11-18T15:54:11;14.60;99.90
44277;DHT22;29973;43.742;1.236;2023-11-18T15:56:41;14.40;99.90
44277;DHT22;29973;43.742;1.236;2023-11-18T15:59:08;14.30;99.90
44277;DHT22;29973;43.742;1.236;2023-11-18T16:01:34;14.00;99.90
44277;DHT22;29973;43.742;1.236;2023-11-18T16:04:00;13.80;99.90
44277;DHT22;29973;43.742;1.236;2023-11-18T16:06:26;13.80;99.90